createdAt,value
2022-10-06T00:01:04.476Z,95.60
2022-10-06T00:03:33.173Z,95.60
2022-10-06T00:06:02.040Z,95.60
2022-10-06T00:08:31.718Z,95.70
2022-10-06T00:10:59.209Z,95.70
2022-10-06T00:13:27.777Z,95.70
2022-10-06T00:15:55.599Z,95.70
2022-10-06T00:18:22.924Z,95.70
2022-10-06T00:20:58.222Z,95.70
2022-10-06T00:23:26.056Z,95.70
2022-10-06T00:25:53.279Z,95.60
2022-10-06T00:28:21.132Z,95.80
2022-10-06T00:30:48.653Z,96.20
2022-10-06T00:33:17.788Z,96.50
2022-10-06T00:35:47.183Z,96.70
2022-10-06T00:38:16.336Z,96.70
2022-10-06T00:40:48.755Z,96.80
2022-10-06T00:43:55.219Z,96.90
2022-10-06T00:46:50.216Z,97.00
2022-10-06T00:49:26.301Z,97.00
2022-10-06T00:52:18.412Z,96.90
2022-10-06T00:54:45.920Z,97.00
2022-10-06T00:57:13.492Z,97.30
2022-10-06T00:59:41.529Z,97.00
2022-10-06T01:02:21.485Z,97.10
2022-10-06T01:04:53.008Z,97.20
2022-10-06T01:07:22.723Z,97.20
2022-10-06T01:09:50.361Z,97.30
2022-10-06T01:12:18.038Z,97.40
2022-10-06T01:14:45.617Z,97.50
2022-10-06T01:17:19.658Z,97.40
2022-10-06T01:19:55.307Z,97.30
2022-10-06T01:22:33.628Z,97.20
2022-10-06T01:25:01.661Z,97.20
2022-10-06T01:27:31.416Z,97.20
2022-10-06T01:29:59.932Z,97.30
2022-10-06T01:32:32.605Z,97.20
2022-10-06T01:35:00.242Z,97.10
2022-10-06T01:37:28.958Z,97.10
2022-10-06T01:39:56.280Z,97.20
2022-10-06T01:42:25.249Z,97.20
2022-10-06T01:44:52.924Z,96.90
2022-10-06T01:47:20.145Z,96.60
2022-10-06T01:49:47.397Z,96.40
2022-10-06T01:52:15.545Z,96.40
2022-10-06T01:54:42.811Z,96.40
2022-10-06T01:57:10.095Z,96.30
2022-10-06T01:59:38.789Z,96.30
2022-10-06T02:02:06.162Z,96.30
2022-10-06T02:04:33.450Z,96.30
2022-10-06T02:07:00.753Z,96.40
2022-10-06T02:09:28.699Z,96.50
2022-10-06T02:11:56.585Z,96.40
2022-10-06T02:14:23.812Z,96.40
2022-10-06T02:16:51.046Z,96.40
2022-10-06T02:19:18.601Z,96.30
2022-10-06T02:21:45.860Z,96.30
2022-10-06T02:24:13.145Z,96.30
2022-10-06T02:26:40.540Z,96.20
2022-10-06T02:29:08.114Z,96.30
2022-10-06T02:31:35.398Z,96.30
2022-10-06T02:34:03.040Z,96.20
2022-10-06T02:36:30.297Z,96.30
2022-10-06T02:38:57.543Z,96.40
2022-10-06T02:41:25.915Z,96.40
2022-10-06T02:43:55.305Z,96.50
2022-10-06T02:46:24.140Z,96.40
2022-10-06T02:48:53.844Z,96.50
2022-10-06T02:51:22.359Z,96.60
2022-10-06T02:53:50.800Z,96.80
2022-10-06T02:56:22.157Z,96.80
2022-10-06T02:58:51.067Z,96.80
2022-10-06T03:01:26.825Z,96.80
2022-10-06T03:03:56.933Z,96.90
2022-10-06T03:06:30.003Z,96.90
2022-10-06T03:09:29.518Z,96.90
2022-10-06T03:11:57.604Z,96.80
2022-10-06T03:14:36.782Z,96.80
2022-10-06T03:17:05.635Z,96.90
2022-10-06T03:19:32.901Z,96.80
2022-10-06T03:22:00.499Z,96.70
2022-10-06T03:24:47.962Z,96.80
2022-10-06T03:27:15.548Z,96.80
2022-10-06T03:29:42.927Z,96.90
2022-10-06T03:32:10.487Z,96.70
2022-10-06T03:34:38.731Z,96.70
2022-10-06T03:37:09.131Z,96.70
2022-10-06T03:39:36.420Z,96.70
2022-10-06T03:42:03.816Z,96.60
2022-10-06T03:44:34.770Z,96.50
2022-10-06T03:47:02.825Z,96.50
2022-10-06T03:49:31.539Z,96.60
2022-10-06T03:51:58.808Z,96.60
2022-10-06T03:54:31.036Z,96.50
2022-10-06T03:56:58.787Z,96.50
2022-10-06T03:59:29.070Z,96.50
2022-10-06T04:01:58.496Z,96.50
2022-10-06T04:04:29.831Z,96.70
2022-10-06T04:07:03.991Z,96.70
2022-10-06T04:09:32.251Z,96.60
2022-10-06T04:12:00.599Z,96.50
2022-10-06T04:14:27.899Z,96.40
2022-10-06T04:16:57.239Z,96.40
2022-10-06T04:19:32.083Z,96.50
2022-10-06T04:21:59.861Z,96.60
2022-10-06T04:24:27.690Z,96.50
2022-10-06T04:27:14.892Z,96.40
2022-10-06T04:29:45.506Z,96.30
2022-10-06T04:32:14.884Z,96.40
2022-10-06T04:34:42.644Z,96.40
2022-10-06T04:37:11.066Z,96.40
2022-10-06T04:39:39.748Z,96.30
2022-10-06T04:42:08.445Z,96.30
2022-10-06T04:44:36.815Z,96.30
2022-10-06T04:47:04.788Z,96.50
2022-10-06T04:49:32.425Z,96.50
2022-10-06T04:51:59.823Z,96.50
2022-10-06T04:54:33.869Z,96.50
2022-10-06T04:57:03.546Z,96.30
2022-10-06T04:59:50.955Z,96.40
2022-10-06T05:02:19.778Z,96.40
2022-10-06T05:04:50.718Z,96.40
2022-10-06T05:07:19.660Z,96.30
2022-10-06T05:09:46.964Z,96.20
2022-10-06T05:12:14.313Z,96.30
2022-10-06T05:14:41.594Z,96.30
2022-10-06T05:17:09.094Z,96.50
2022-10-06T05:19:37.842Z,96.70
2022-10-06T05:22:05.711Z,96.80
2022-10-06T05:24:33.736Z,96.80
2022-10-06T05:27:03.822Z,96.90
2022-10-06T05:29:32.115Z,97.00
2022-10-06T05:31:59.504Z,97.10
2022-10-06T05:34:28.737Z,97.10
2022-10-06T05:36:56.371Z,97.10
2022-10-06T05:39:23.617Z,97.20
2022-10-06T05:41:55.727Z,97.10
2022-10-06T05:44:23.093Z,97.20
2022-10-06T05:46:50.370Z,97.30
2022-10-06T05:49:18.817Z,97.20
2022-10-06T05:51:53.120Z,97.20
2022-10-06T05:54:27.574Z,97.10
2022-10-06T05:56:55.134Z,97.00
2022-10-06T05:59:23.085Z,97.00
2022-10-06T06:01:52.350Z,97.10
2022-10-06T06:04:34.557Z,97.30
2022-10-06T06:07:02.068Z,97.20
2022-10-06T06:09:29.431Z,97.10
2022-10-06T06:12:00.029Z,96.90
2022-10-06T06:15:09.008Z,96.80
2022-10-06T06:17:44.969Z,96.70
2022-10-06T06:20:13.213Z,96.40
2022-10-06T06:22:41.006Z,96.40
2022-10-06T06:25:08.945Z,96.60
2022-10-06T06:27:36.292Z,96.50
2022-10-06T06:30:06.209Z,96.30
2022-10-06T06:32:34.810Z,96.00
2022-10-06T06:35:03.062Z,95.90
2022-10-06T06:37:31.783Z,95.80
2022-10-06T06:39:59.761Z,95.70
2022-10-06T06:42:27.872Z,95.60
2022-10-06T06:45:00.486Z,95.50
2022-10-06T06:47:40.906Z,95.60
2022-10-06T06:50:10.388Z,95.50
2022-10-06T06:52:39.961Z,95.60
2022-10-06T06:55:10.358Z,95.60
2022-10-06T06:57:37.654Z,95.50
2022-10-06T07:00:08.026Z,95.50
2022-10-06T07:02:37.084Z,95.40
2022-10-06T07:05:05.260Z,95.40
2022-10-06T07:07:32.783Z,95.30
2022-10-06T07:10:01.002Z,95.30
2022-10-06T07:12:31.124Z,95.10
2022-10-06T07:15:17.400Z,95.10
2022-10-06T07:18:07.504Z,95.30
2022-10-06T07:20:53.945Z,95.10
2022-10-06T07:23:40.440Z,95.00
2022-10-06T07:26:12.557Z,94.90
2022-10-06T07:28:42.316Z,94.90
2022-10-06T07:31:10.193Z,95.00
2022-10-06T07:33:37.684Z,94.90
2022-10-06T07:36:06.123Z,94.80
2022-10-06T07:38:34.740Z,94.70
2022-10-06T07:43:53.856Z,94.30
2022-10-06T07:46:21.515Z,94.10
2022-10-06T07:49:03.019Z,93.80
2022-10-06T07:51:31.382Z,93.50
2022-10-06T07:53:59.742Z,93.30
2022-10-06T07:56:47.177Z,92.80
2022-10-06T07:59:14.398Z,92.70
2022-10-06T08:01:41.706Z,92.40
2022-10-06T08:04:09.008Z,92.20
2022-10-06T08:06:36.588Z,91.80
2022-10-06T08:09:04.601Z,91.60
2022-10-06T08:11:32.463Z,91.40
2022-10-06T08:14:00.253Z,91.20
2022-10-06T08:16:30.718Z,90.90
2022-10-06T08:18:59.347Z,90.80
2022-10-06T08:21:29.674Z,90.70
2022-10-06T08:23:58.776Z,90.50
2022-10-06T08:26:27.307Z,90.30
2022-10-06T08:28:59.734Z,90.00
2022-10-06T08:31:27.091Z,89.60
2022-10-06T08:33:56.836Z,89.20
2022-10-06T08:36:30.946Z,88.90
2022-10-06T08:39:00.148Z,88.50
2022-10-06T08:41:39.554Z,87.90
2022-10-06T08:44:22.961Z,87.40
2022-10-06T08:47:28.061Z,86.80
2022-10-06T08:49:57.109Z,85.90
2022-10-06T08:52:26.368Z,85.40
2022-10-06T08:55:14.973Z,84.80
2022-10-06T08:57:55.346Z,84.20
2022-10-06T09:00:22.890Z,83.90
2022-10-06T09:02:50.934Z,83.50
2022-10-06T09:05:25.284Z,82.90
2022-10-06T09:08:04.433Z,82.30
2022-10-06T09:10:58.925Z,82.00
2022-10-06T09:13:33.345Z,81.30
2022-10-06T09:16:07.586Z,80.70
2022-10-06T09:21:49.978Z,79.30
2022-10-06T09:24:24.390Z,78.40
2022-10-06T09:26:53.278Z,77.50
2022-10-06T09:29:20.550Z,77.20
2022-10-06T09:31:50.384Z,76.50
2022-10-06T09:34:44.689Z,76.60
2022-10-06T09:37:13.580Z,76.30
2022-10-06T09:39:48.191Z,75.30
2022-10-06T09:42:15.539Z,75.20
2022-10-06T09:44:52.252Z,74.70
2022-10-06T09:47:33.286Z,71.90
2022-10-06T09:50:12.391Z,71.00
2022-10-06T09:52:41.825Z,70.20
2022-10-06T09:55:12.837Z,70.50
2022-10-06T09:57:49.214Z,70.40
2022-10-06T10:00:35.892Z,70.00
2022-10-06T10:03:06.660Z,68.80
2022-10-06T10:05:36.840Z,68.10
2022-10-06T10:08:25.601Z,68.20
2022-10-06T10:11:08.135Z,67.40
2022-10-06T10:13:44.250Z,67.90
2022-10-06T10:16:16.603Z,67.90
2022-10-06T10:18:51.030Z,67.00
2022-10-06T10:21:27.027Z,67.40
2022-10-06T10:23:58.770Z,66.90
2022-10-06T10:26:29.105Z,65.50
2022-10-06T10:29:41.399Z,65.80
2022-10-06T10:32:50.461Z,65.90
2022-10-06T10:35:23.607Z,66.00
2022-10-06T10:38:01.384Z,65.70
2022-10-06T10:40:43.057Z,65.10
2022-10-06T10:43:36.152Z,65.20
2022-10-06T10:46:27.269Z,64.70
2022-10-06T10:49:04.115Z,64.90
2022-10-06T10:52:03.973Z,64.40
2022-10-06T10:54:37.905Z,64.90
2022-10-06T10:57:13.908Z,64.70
2022-10-06T10:59:52.438Z,64.30
2022-10-06T11:02:21.805Z,63.50
2022-10-06T11:04:53.990Z,63.60
2022-10-06T11:07:38.977Z,63.40
2022-10-06T11:10:24.066Z,63.70
2022-10-06T11:13:25.356Z,63.50
2022-10-06T11:16:16.223Z,63.70
2022-10-06T11:18:53.624Z,64.40
2022-10-06T11:21:31.189Z,63.70
2022-10-06T11:24:16.395Z,64.10
2022-10-06T11:26:53.599Z,63.00
2022-10-06T11:29:38.894Z,63.30
2022-10-06T11:32:23.465Z,64.50
2022-10-06T11:34:52.751Z,63.60
2022-10-06T11:37:35.172Z,63.70
2022-10-06T11:40:28.128Z,63.60
2022-10-06T11:43:03.885Z,62.90
2022-10-06T11:45:49.598Z,62.80
2022-10-06T11:48:31.679Z,63.20
2022-10-06T11:51:24.986Z,62.90
2022-10-06T11:53:52.979Z,62.80
2022-10-06T11:56:20.151Z,62.40
2022-10-06T11:58:56.473Z,61.70
2022-10-06T12:01:36.288Z,61.40
2022-10-06T12:04:15.075Z,61.00
2022-10-06T12:06:42.541Z,61.10
2022-10-06T12:09:33.214Z,61.40
2022-10-06T12:12:07.019Z,60.30
2022-10-06T12:17:41.778Z,60.60
2022-10-06T12:20:17.869Z,61.10
2022-10-06T12:22:55.025Z,61.80
2022-10-06T12:25:37.495Z,61.80
2022-10-06T12:28:20.994Z,62.00
2022-10-06T12:31:06.560Z,62.20
2022-10-06T12:33:39.839Z,62.00
2022-10-06T12:36:23.494Z,61.30
2022-10-06T12:39:24.336Z,61.20
2022-10-06T12:42:17.830Z,61.20
2022-10-06T12:44:51.502Z,61.20
2022-10-06T12:47:21.836Z,61.40
2022-10-06T12:49:57.160Z,61.90
2022-10-06T12:52:32.167Z,61.80
2022-10-06T12:55:15.086Z,61.60
2022-10-06T12:57:47.489Z,62.10
2022-10-06T13:00:31.326Z,62.40
2022-10-06T13:03:00.986Z,61.30
2022-10-06T13:05:29.234Z,61.70
2022-10-06T13:08:07.621Z,62.10
2022-10-06T13:10:35.141Z,62.20
2022-10-06T13:13:02.618Z,62.10
2022-10-06T13:15:35.563Z,62.20
2022-10-06T13:18:16.016Z,62.20
2022-10-06T13:20:53.900Z,62.20
2022-10-06T13:23:38.044Z,61.80
2022-10-06T13:26:26.874Z,62.10
2022-10-06T13:28:56.234Z,62.30
2022-10-06T13:31:31.761Z,62.20
2022-10-06T13:34:15.795Z,62.10
2022-10-06T13:36:46.893Z,62.10
2022-10-06T13:39:15.565Z,62.00
2022-10-06T13:42:10.307Z,62.00
2022-10-06T13:44:49.490Z,62.40
2022-10-06T13:47:22.583Z,62.40
2022-10-06T13:49:58.880Z,62.20
2022-10-06T13:52:37.867Z,62.40
2022-10-06T13:55:21.244Z,62.80
2022-10-06T13:58:04.926Z,62.40
2022-10-06T14:01:00.831Z,62.60
2022-10-06T14:06:16.209Z,62.80
2022-10-06T14:08:49.716Z,62.90
2022-10-06T14:11:24.206Z,63.10
2022-10-06T14:14:03.814Z,62.90
2022-10-06T14:16:31.454Z,63.20
2022-10-06T14:19:04.784Z,62.10
2022-10-06T14:21:41.449Z,61.70
2022-10-06T14:24:20.732Z,61.60
2022-10-06T14:26:49.778Z,61.50
2022-10-06T14:29:18.481Z,61.50
2022-10-06T14:31:47.204Z,61.40
2022-10-06T14:34:17.453Z,61.30
2022-10-06T14:36:53.517Z,61.40
2022-10-06T14:39:21.256Z,61.60
2022-10-06T14:41:48.526Z,61.60
2022-10-06T14:44:16.234Z,61.60
2022-10-06T14:46:48.041Z,61.80
2022-10-06T14:49:16.303Z,62.10
2022-10-06T14:51:44.681Z,62.20
2022-10-06T14:54:12.472Z,61.90
2022-10-06T14:56:41.220Z,61.90
2022-10-06T14:59:12.094Z,61.90
2022-10-06T15:01:40.521Z,62.30
2022-10-06T15:04:11.226Z,62.50
2022-10-06T15:06:57.591Z,62.50
2022-10-06T15:09:25.403Z,62.50
2022-10-06T15:11:54.186Z,62.70
2022-10-06T15:14:25.024Z,63.20
2022-10-06T15:16:52.409Z,62.60
2022-10-06T15:19:19.633Z,62.90
2022-10-06T15:21:47.191Z,63.00
2022-10-06T15:24:16.672Z,63.30
2022-10-06T15:27:03.467Z,63.70
2022-10-06T15:29:31.820Z,63.60
2022-10-06T15:32:00.411Z,63.70
2022-10-06T15:34:30.035Z,63.80
2022-10-06T15:36:57.943Z,64.00
2022-10-06T15:39:27.651Z,64.10
2022-10-06T15:41:54.896Z,64.10
2022-10-06T15:44:22.576Z,64.40
2022-10-06T15:46:54.894Z,64.80
2022-10-06T15:49:26.753Z,64.80
2022-10-06T15:52:04.957Z,64.60
2022-10-06T15:54:40.845Z,64.70
2022-10-06T15:57:13.893Z,65.00
2022-10-06T15:59:44.395Z,65.10
2022-10-06T16:02:17.174Z,65.40
2022-10-06T16:04:55.597Z,65.20
2022-10-06T16:07:22.979Z,65.50
2022-10-06T16:09:51.487Z,65.70
2022-10-06T16:12:24.723Z,66.00
2022-10-06T16:14:51.997Z,66.20
2022-10-06T16:17:19.217Z,66.30
2022-10-06T16:19:47.265Z,66.50
2022-10-06T16:22:16.920Z,66.80
2022-10-06T16:24:44.153Z,67.20
2022-10-06T16:27:13.032Z,67.50
2022-10-06T16:29:40.781Z,67.80
2022-10-06T16:32:08.356Z,68.20
2022-10-06T16:34:35.559Z,68.60
2022-10-06T16:37:03.047Z,69.10
2022-10-06T16:39:30.635Z,69.30
2022-10-06T16:41:57.974Z,69.50
2022-10-06T16:44:25.314Z,69.80
2022-10-06T16:46:52.598Z,70.10
2022-10-06T16:49:20.833Z,70.50
2022-10-06T16:51:48.230Z,70.90
2022-10-06T16:54:17.579Z,71.20
2022-10-06T16:56:52.067Z,71.50
2022-10-06T16:59:21.771Z,72.00
2022-10-06T17:01:50.689Z,72.40
2022-10-06T17:04:20.559Z,72.80
2022-10-06T17:06:50.429Z,73.10
2022-10-06T17:09:19.908Z,73.30
2022-10-06T17:11:52.708Z,73.70
2022-10-06T17:14:21.333Z,74.20
2022-10-06T17:16:51.334Z,74.30
2022-10-06T17:19:20.767Z,74.80
2022-10-06T17:21:51.554Z,75.30
2022-10-06T17:24:23.062Z,75.50
2022-10-06T17:26:50.389Z,75.70
2022-10-06T17:29:21.369Z,76.00
2022-10-06T17:31:58.726Z,76.30
2022-10-06T17:34:31.724Z,76.60
2022-10-06T17:37:01.256Z,76.80
2022-10-06T17:39:28.795Z,77.00
2022-10-06T17:41:56.121Z,77.00
2022-10-06T17:44:26.838Z,77.40
2022-10-06T17:46:58.780Z,77.70
2022-10-06T17:49:27.347Z,78.20
2022-10-06T17:51:55.270Z,78.50
2022-10-06T17:54:25.520Z,79.10
2022-10-06T17:56:56.114Z,79.00
2022-10-06T17:59:32.025Z,79.00
2022-10-06T18:02:02.765Z,79.30
2022-10-06T18:04:30.613Z,79.30
2022-10-06T18:06:58.381Z,79.50
2022-10-06T18:09:25.930Z,79.70
2022-10-06T18:11:56.799Z,80.00
2022-10-06T18:14:26.797Z,80.30
2022-10-06T18:17:01.062Z,80.60
2022-10-06T18:19:31.170Z,81.00
2022-10-06T18:22:01.081Z,81.20
2022-10-06T18:24:30.358Z,81.40
2022-10-06T18:26:59.966Z,81.60
2022-10-06T18:29:32.760Z,81.90
2022-10-06T18:37:36.273Z,82.80
2022-10-06T18:40:06.921Z,83.30
2022-10-06T18:42:34.433Z,83.70
2022-10-06T18:45:20.084Z,84.00
2022-10-06T18:48:05.917Z,84.10
2022-10-06T18:50:34.194Z,84.10
2022-10-06T18:53:01.862Z,84.60
2022-10-06T18:55:29.905Z,84.80
2022-10-06T18:57:57.522Z,85.00
2022-10-06T19:00:26.134Z,85.30
2022-10-06T19:02:55.683Z,85.40
2022-10-06T19:05:23.688Z,85.60
2022-10-06T19:07:53.707Z,85.70
2022-10-06T19:10:21.640Z,85.80
2022-10-06T19:12:49.467Z,85.90
2022-10-06T19:15:20.718Z,86.10
2022-10-06T19:17:50.042Z,86.20
2022-10-06T19:20:18.697Z,86.30
2022-10-06T19:22:47.834Z,86.30
2022-10-06T19:25:18.720Z,86.50
2022-10-06T19:27:46.303Z,86.90
2022-10-06T19:30:14.480Z,87.10
2022-10-06T19:32:41.988Z,87.50
2022-10-06T19:35:10.305Z,87.90
2022-10-06T19:37:38.615Z,88.20
2022-10-06T19:40:08.575Z,88.60
2022-10-06T19:42:47.912Z,88.80
2022-10-06T19:45:16.388Z,89.00
2022-10-06T19:47:45.938Z,89.20
2022-10-06T19:50:14.507Z,89.10
2022-10-06T19:52:42.191Z,89.10
2022-10-06T19:55:09.700Z,89.20
2022-10-06T19:57:37.170Z,89.40
2022-10-06T20:00:06.255Z,89.50
2022-10-06T20:02:42.892Z,89.60
2022-10-06T20:05:12.839Z,89.70
2022-10-06T20:07:41.622Z,89.70
2022-10-06T20:10:11.715Z,89.90
2022-10-06T20:12:41.573Z,90.00
2022-10-06T20:15:10.351Z,90.10
2022-10-06T20:17:37.920Z,90.20
2022-10-06T20:20:05.626Z,90.30
2022-10-06T20:22:32.868Z,90.30
2022-10-06T20:25:01.873Z,90.40
2022-10-06T20:27:29.235Z,90.50
2022-10-06T20:29:58.171Z,90.70
2022-10-06T20:32:25.628Z,90.70
2022-10-06T20:34:52.974Z,90.70
2022-10-06T20:37:20.248Z,90.60
2022-10-06T20:40:05.941Z,90.40
2022-10-06T20:42:33.652Z,90.40
2022-10-06T20:45:00.876Z,90.60
2022-10-06T20:47:28.211Z,90.80
2022-10-06T20:49:55.551Z,90.90
2022-10-06T20:52:24.373Z,91.10
2022-10-06T20:54:52.128Z,91.20
2022-10-06T20:57:19.594Z,91.20
2022-10-06T20:59:46.948Z,91.30
2022-10-06T21:02:14.157Z,91.40
2022-10-06T21:04:43.495Z,91.40
2022-10-06T21:07:11.322Z,91.30
2022-10-06T21:09:38.528Z,91.40
2022-10-06T21:12:05.841Z,91.50
2022-10-06T21:14:34.251Z,91.60
2022-10-06T21:17:01.874Z,91.70
2022-10-06T21:19:29.955Z,91.70
2022-10-06T21:21:57.272Z,91.70
2022-10-06T21:24:24.603Z,91.80
2022-10-06T21:26:52.666Z,92.00
2022-10-06T21:29:20.906Z,92.10
2022-10-06T21:31:48.213Z,92.20
2022-10-06T21:34:15.494Z,92.40
2022-10-06T21:36:43.767Z,92.50
2022-10-06T21:39:12.498Z,92.70
2022-10-06T21:41:40.274Z,92.90
2022-10-06T21:44:13.523Z,93.10
2022-10-06T21:46:51.740Z,93.20
2022-10-06T21:49:20.954Z,93.30
2022-10-06T21:51:51.122Z,93.40
2022-10-06T21:54:19.825Z,93.40
2022-10-06T21:56:47.382Z,93.40
2022-10-06T21:59:14.879Z,93.30
2022-10-06T22:01:44.964Z,93.40
2022-10-06T22:04:14.446Z,93.40
2022-10-06T22:06:43.062Z,93.60
2022-10-06T22:09:14.754Z,93.70
2022-10-06T22:11:42.153Z,94.00
2022-10-06T22:14:12.593Z,94.10
2022-10-06T22:16:39.924Z,94.20
2022-10-06T22:19:09.344Z,94.30
2022-10-06T22:21:39.240Z,94.40
2022-10-06T22:24:13.350Z,94.60
2022-10-06T22:26:42.195Z,94.60
2022-10-06T22:29:11.944Z,94.50
2022-10-06T22:31:40.996Z,94.90
2022-10-06T22:34:10.444Z,94.70
2022-10-06T22:36:37.828Z,94.80
2022-10-06T22:39:05.292Z,95.00
2022-10-06T22:41:32.494Z,95.10
2022-10-06T22:44:00.448Z,95.20
2022-10-06T22:46:30.657Z,95.20
2022-10-06T22:48:58.431Z,95.30
2022-10-06T22:51:26.036Z,95.40
2022-10-06T22:53:58.892Z,95.40
2022-10-06T22:56:28.159Z,95.50
2022-10-06T22:58:56.908Z,95.50
2022-10-06T23:01:24.298Z,95.50
2022-10-06T23:03:55.601Z,95.50
2022-10-06T23:06:23.223Z,95.50
2022-10-06T23:08:50.493Z,95.50
2022-10-06T23:11:20.768Z,95.60
2022-10-06T23:13:50.084Z,95.60
2022-10-06T23:16:19.520Z,95.60
2022-10-06T23:18:48.147Z,95.60
2022-10-06T23:21:21.513Z,95.50
2022-10-06T23:23:51.653Z,95.60
2022-10-06T23:26:20.131Z,95.70
2022-10-06T23:28:52.323Z,95.60
2022-10-06T23:31:19.923Z,95.40
2022-10-06T23:33:47.339Z,95.10
2022-10-06T23:36:14.998Z,95.00
2022-10-06T23:38:42.589Z,94.90
2022-10-06T23:41:10.454Z,94.90
2022-10-06T23:43:37.681Z,94.80
2022-10-06T23:46:05.124Z,94.90
2022-10-06T23:48:32.482Z,95.00
2022-10-06T23:51:02.503Z,95.10
2022-10-06T23:53:31.094Z,95.20
2022-10-06T23:55:58.659Z,95.40
2022-10-06T23:58:27.095Z,95.50
